Time,TemperatureF,DewpointF,PressureIn,WindDirection,WindDirectionDegrees,WindSpeedMPH,WindSpeedGustMPH,Humidity,HourlyPrecipIn,Conditions,Clouds,dailyrainin,SoftwareType,DateUTC
2013-03-05 00:09:00,36.5,28.0,30.11,WNW,294,0.0,2.0,72,0.00,,,0.00,weatherlink.com 1.10,2013-03-05 05:09:00,
2013-03-05 00:24:00,36.6,28.0,30.11,WNW,300,0.0,1.0,71,0.00,,,0.00,weatherlink.com 1.10,2013-03-05 05:24:00,
2013-03-05 00:39:00,36.9,27.0,30.10,NW,308,1.0,2.0,68,0.00,,,0.00,weatherlink.com 1.10,2013-03-05 05:39:00,
2013-03-05 00:54:00,36.0,28.0,30.11,NW,309,0.0,1.0,72,0.00,,,0.00,weatherlink.com 1.10,2013-03-05 05:54:00,
2013-03-05 01:09:00,35.5,27.0,30.11,NW,306,1.0,1.0,72,0.00,,,0.00,weatherlink.com 1.10,2013-03-05 06:09:00,
2013-03-05 01:24:00,35.2,28.0,30.11,NW,307,0.0,1.0,76,0.00,,,0.00,weatherlink.com 1.10,2013-03-05 06:24:00,
2013-03-05 01:39:00,35.2,29.0,30.11,NW,309,0.0,1.0,78,0.00,,,0.00,weatherlink.com 1.10,2013-03-05 06:39:00,
2013-03-05 01:54:00,35.0,29.0,30.11,NW,309,0.0,1.0,79,0.00,,,0.00,weatherlink.com 1.10,2013-03-05 06:54:00,
2013-03-05 02:09:00,34.8,29.0,30.10,NW,322,0.0,1.0,79,0.00,,,0.00,weatherlink.com 1.10,2013-03-05 07:09:00,
2013-03-05 02:24:00,34.9,29.0,30.10,NW,311,0.0,1.0,79,0.00,,,0.00,weatherlink.com 1.10,2013-03-05 07:24:00,
2013-03-05 02:39:00,34.8,29.0,30.10,NW,316,0.0,1.0,79,0.00,,,0.00,weatherlink.com 1.10,2013-03-05 07:39:00,
2013-03-05 02:54:00,34.5,29.0,30.09,NW,316,0.0,1.0,79,0.00,,,0.00,weatherlink.com 1.10,2013-03-05 07:54:00,
2013-03-05 03:10:00,34.5,29.0,30.09,NW,316,0.0,0.0,79,0.00,,,0.00,weatherlink.com 1.10,2013-03-05 08:10:00,
2013-03-05 03:25:00,34.1,29.0,30.10,NW,316,0.0,1.0,81,0.00,,,0.00,weatherlink.com 1.10,2013-03-05 08:25:00,
2013-03-05 03:40:00,34.3,29.0,30.10,NW,316,0.0,1.0,81,0.00,,,0.00,weatherlink.com 1.10,2013-03-05 08:40:00,
2013-03-05 03:55:00,34.3,29.0,30.11,NW,316,0.0,1.0,81,0.00,,,0.00,weatherlink.com 1.10,2013-03-05 08:55:00,
2013-03-05 04:10:00,34.8,29.0,30.10,NNW,335,0.0,1.0,79,0.00,,,0.00,weatherlink.com 1.10,2013-03-05 09:10:00,
2013-03-05 04:25:00,35.1,29.0,30.11,NNW,336,0.0,1.0,77,0.00,,,0.00,weatherlink.com 1.10,2013-03-05 09:25:00,
2013-03-05 04:40:00,35.2,28.0,30.11,NNW,335,0.0,1.0,76,0.00,,,0.00,weatherlink.com 1.10,2013-03-05 09:40:00,
2013-03-05 04:55:00,35.2,29.0,30.11,NNW,336,0.0,1.0,77,0.00,,,0.00,weatherlink.com 1.10,2013-03-05 09:55:00,
2013-03-05 05:10:00,35.5,29.0,30.12,NNW,327,0.0,1.0,76,0.00,,,0.00,weatherlink.com 1.10,2013-03-05 10:10:00,
2013-03-05 05:25:00,35.6,29.0,30.12,NW,317,0.0,1.0,76,0.00,,,0.00,weatherlink.com 1.10,2013-03-05 10:25:00,
2013-03-05 05:40:00,35.7,29.0,30.12,NNW,328,0.0,1.0,77,0.00,,,0.00,weatherlink.com 1.10,2013-03-05 10:40:00,
2013-03-05 05:55:00,36.2,30.0,30.13,NW,316,0.0,1.0,78,0.00,,,0.00,weatherlink.com 1.10,2013-03-05 10:55:00,
2013-03-05 06:10:00,36.8,30.0,30.13,NNW,342,0.0,1.0,77,0.00,,,0.00,weatherlink.com 1.10,2013-03-05 11:10:00,
2013-03-05 06:25:00,36.8,31.0,30.14,NNW,342,0.0,1.0,79,0.00,,,0.00,weatherlink.com 1.10,2013-03-05 11:25:00,
2013-03-05 06:40:00,36.3,31.0,30.14,North,349,0.0,1.0,80,0.00,,,0.00,weatherlink.com 1.10,2013-03-05 11:40:00,
2013-03-05 06:55:00,36.2,31.0,30.14,North,352,0.0,1.0,80,0.00,,,0.00,weatherlink.com 1.10,2013-03-05 11:55:00,
2013-03-05 07:10:00,37.3,31.0,30.14,NW,316,0.0,1.0,78,0.00,,,0.00,weatherlink.com 1.10,2013-03-05 12:10:00,
2013-03-05 07:25:00,37.5,30.0,30.14,NW,319,0.0,1.0,73,0.00,,,0.00,weatherlink.com 1.10,2013-03-05 12:25:00,
2013-03-05 07:40:00,37.9,29.0,30.14,NW,316,0.0,0.0,70,0.00,,,0.00,weatherlink.com 1.10,2013-03-05 12:40:00,
2013-03-05 07:55:00,40.1,29.0,30.14,NW,319,0.0,0.0,66,0.00,,,0.00,weatherlink.com 1.10,2013-03-05 12:55:00,
2013-03-05 08:10:00,41.7,30.0,30.14,WNW,297,1.0,1.0,64,0.00,,,0.00,weatherlink.com 1.10,2013-03-05 13:10:00,
2013-03-05 08:25:00,44.0,30.0,30.15,WNW,293,0.0,1.0,59,0.00,,,0.00,weatherlink.com 1.10,2013-03-05 13:25:00,
2013-03-05 08:40:00,44.0,29.0,30.14,WNW,290,0.0,0.0,55,0.00,,,0.00,weatherlink.com 1.10,2013-03-05 13:40:00,
2013-03-05 08:55:00,44.4,30.0,30.13,SSW,204,1.0,1.0,58,0.00,,,0.00,weatherlink.com 1.10,2013-03-05 13:55:00,
2013-03-05 09:10:00,45.5,30.0,30.12,SSW,204,2.0,3.0,56,0.00,,,0.00,weatherlink.com 1.10,2013-03-05 14:10:00,
2013-03-05 09:25:00,46.0,32.0,30.12,SSE,159,2.0,3.0,58,0.00,,,0.00,weatherlink.com 1.10,2013-03-05 14:25:00,
2013-03-05 09:40:00,46.5,33.0,30.11,SSE,166,2.0,4.0,59,0.00,,,0.00,weatherlink.com 1.10,2013-03-05 14:40:00,
2013-03-05 09:55:00,46.7,32.0,30.11,South,185,3.0,4.0,57,0.00,,,0.00,weatherlink.com 1.10,2013-03-05 14:55:00,
2013-03-05 10:10:00,46.9,33.0,30.11,SSE,155,3.0,5.0,59,0.00,,,0.00,weatherlink.com 1.10,2013-03-05 15:10:00,
2013-03-05 10:26:00,47.0,33.0,30.10,SE,138,1.0,3.0,58,0.00,,,0.00,weatherlink.com 1.10,2013-03-05 15:26:00,
2013-03-05 10:40:00,48.3,35.0,30.10,SE,136,1.0,2.0,60,0.00,,,0.00,weatherlink.com 1.10,2013-03-05 15:40:00,
2013-03-05 10:56:00,48.8,36.0,30.10,ESE,117,1.0,2.0,61,0.00,,,0.00,weatherlink.com 1.10,2013-03-05 15:56:00,
2013-03-05 11:11:00,49.7,35.0,30.08,East,88,2.0,2.0,58,0.00,,,0.00,weatherlink.com 1.10,2013-03-05 16:11:00,
2013-03-05 11:26:00,52.0,34.0,30.07,ESE,103,0.0,2.0,50,0.00,,,0.00,weatherlink.com 1.10,2013-03-05 16:26:00,
2013-03-05 11:41:00,55.2,33.0,30.05,East,89,2.0,2.0,44,0.00,,,0.00,weatherlink.com 1.10,2013-03-05 16:41:00,
2013-03-05 11:56:00,55.2,35.0,30.05,East,87,3.0,4.0,47,0.00,,,0.00,weatherlink.com 1.10,2013-03-05 16:56:00,
2013-03-05 12:11:00,53.9,37.0,30.05,ENE,78,3.0,7.0,53,0.00,,,0.00,weatherlink.com 1.10,2013-03-05 17:11:00,
2013-03-05 12:26:00,53.5,40.0,30.05,East,82,3.0,5.0,60,0.00,,,0.00,weatherlink.com 1.10,2013-03-05 17:26:00,
2013-03-05 12:41:00,55.7,42.0,30.04,SSW,210,9.0,11.0,60,0.00,,,0.00,weatherlink.com 1.10,2013-03-05 17:41:00,
2013-03-05 12:56:00,55.9,43.0,30.02,SSW,209,7.0,15.0,63,0.00,,,0.00,weatherlink.com 1.10,2013-03-05 17:56:00,
2013-03-05 13:11:00,55.7,44.0,30.02,SSW,198,8.0,12.0,64,0.00,,,0.00,weatherlink.com 1.10,2013-03-05 18:11:00,
2013-03-05 13:26:00,55.3,43.0,30.01,SSW,205,10.0,11.0,64,0.00,,,0.00,weatherlink.com 1.10,2013-03-05 18:26:00,
2013-03-05 13:41:00,55.1,44.0,30.00,SSW,197,10.0,12.0,66,0.00,,,0.00,weatherlink.com 1.10,2013-03-05 18:41:00,
2013-03-05 13:56:00,54.9,44.0,29.99,SSW,197,9.0,13.0,66,0.00,,,0.00,weatherlink.com 1.10,2013-03-05 18:56:00,
2013-03-05 14:11:00,54.3,44.0,29.98,SSW,200,8.0,10.0,69,0.00,,,0.00,weatherlink.com 1.10,2013-03-05 19:11:00,
2013-03-05 14:26:00,54.4,44.0,29.98,SSW,203,7.0,12.0,68,0.00,,,0.00,weatherlink.com 1.10,2013-03-05 19:26:00,
2013-03-05 14:41:00,54.4,45.0,29.98,SSW,200,9.0,11.0,70,0.00,,,0.00,weatherlink.com 1.10,2013-03-05 19:41:00,
2013-03-05 14:56:00,54.1,45.0,29.97,SSW,208,6.0,10.0,71,0.00,,,0.00,weatherlink.com 1.10,2013-03-05 19:56:00,
2013-03-05 15:11:00,53.9,45.0,29.96,SSW,200,6.0,10.0,73,0.00,,,0.00,weatherlink.com 1.10,2013-03-05 20:11:00,
2013-03-05 15:26:00,54.5,45.0,29.97,SSW,193,9.0,13.0,70,0.00,,,0.00,weatherlink.com 1.10,2013-03-05 20:26:00,
2013-03-05 15:41:00,54.8,45.0,29.96,SSW,197,9.0,11.0,69,0.00,,,0.00,weatherlink.com 1.10,2013-03-05 20:41:00,
2013-03-05 15:56:00,54.9,46.0,29.95,SSW,195,7.0,14.0,71,0.00,,,0.00,weatherlink.com 1.10,2013-03-05 20:56:00,
2013-03-05 16:11:00,55.0,46.0,29.94,SW,217,7.0,14.0,72,0.00,,,0.00,weatherlink.com 1.10,2013-03-05 21:11:00,
2013-03-05 16:26:00,54.9,46.0,29.93,SSW,205,10.0,14.0,71,0.00,,,0.00,weatherlink.com 1.10,2013-03-05 21:26:00,
2013-03-05 16:41:00,55.1,47.0,29.93,SSW,195,10.0,13.0,73,0.00,,,0.00,weatherlink.com 1.10,2013-03-05 21:41:00,
2013-03-05 16:56:00,54.9,47.0,29.92,SSW,195,6.0,13.0,75,0.00,,,0.00,weatherlink.com 1.10,2013-03-05 21:56:00,
2013-03-05 17:11:00,55.2,47.0,29.92,SSW,205,8.0,12.0,74,0.00,,,0.00,weatherlink.com 1.10,2013-03-05 22:11:00,
2013-03-05 17:27:00,54.9,47.0,29.91,SSW,205,8.0,12.0,76,0.00,,,0.00,weatherlink.com 1.10,2013-03-05 22:27:00,
2013-03-05 17:42:00,54.5,48.0,29.91,SSW,207,5.0,7.0,78,0.00,,,0.00,weatherlink.com 1.10,2013-03-05 22:42:00,
2013-03-05 17:57:00,53.9,48.0,29.91,SSW,208,3.0,5.0,80,0.00,,,0.00,weatherlink.com 1.10,2013-03-05 22:57:00,
2013-03-05 18:12:00,53.8,48.0,29.90,SW,214,3.0,5.0,81,0.00,,,0.00,weatherlink.com 1.10,2013-03-05 23:12:00,
2013-03-05 18:27:00,53.7,48.0,29.90,SSW,208,1.0,3.0,81,0.00,,,0.00,weatherlink.com 1.10,2013-03-05 23:27:00,
2013-03-05 18:42:00,53.8,48.0,29.88,SSE,155,3.0,5.0,81,0.00,,,0.00,weatherlink.com 1.10,2013-03-05 23:42:00,
2013-03-05 18:57:00,53.8,48.0,29.88,SSW,195,3.0,4.0,81,0.00,,,0.00,weatherlink.com 1.10,2013-03-05 23:57:00,
2013-03-05 19:12:00,54.2,48.0,29.87,SSW,212,7.0,7.0,79,0.00,,,0.00,weatherlink.com 1.10,2013-03-06 00:12:00,
2013-03-05 19:27:00,55.2,48.0,29.87,SW,219,7.0,11.0,76,0.00,,,0.00,weatherlink.com 1.10,2013-03-06 00:27:00,
2013-03-05 19:42:00,55.3,48.0,29.86,SW,234,7.0,11.0,77,0.00,,,0.00,weatherlink.com 1.10,2013-03-06 00:42:00,
2013-03-05 19:57:00,55.4,49.0,29.85,SSW,208,6.0,11.0,78,0.00,,,0.00,weatherlink.com 1.10,2013-03-06 00:57:00,
2013-03-05 20:12:00,55.3,49.0,29.84,SW,217,9.0,11.0,79,0.00,,,0.00,weatherlink.com 1.10,2013-03-06 01:12:00,
2013-03-05 20:27:00,55.3,49.0,29.84,SW,214,7.0,9.0,80,0.00,,,0.00,weatherlink.com 1.10,2013-03-06 01:27:00,
2013-03-05 20:42:00,55.4,50.0,29.82,SW,217,10.0,13.0,81,0.00,,,0.00,weatherlink.com 1.10,2013-03-06 01:42:00,
2013-03-05 20:57:00,55.9,50.0,29.81,SSW,213,14.0,15.0,80,0.00,,,0.00,weatherlink.com 1.10,2013-03-06 01:57:00,
2013-03-05 21:12:00,55.7,50.0,29.81,SW,217,6.0,18.0,81,0.00,,,0.00,weatherlink.com 1.10,2013-03-06 02:12:00,
2013-03-05 21:27:00,55.7,50.0,29.80,SW,217,8.0,12.0,82,0.00,,,0.00,weatherlink.com 1.10,2013-03-06 02:27:00,
2013-03-05 21:57:00,54.8,51.0,29.76,South,177,7.0,11.0,86,0.00,,,0.00,weatherlink.com 1.10,2013-03-06 02:57:00,
2013-03-05 22:12:00,54.5,51.0,29.75,SSW,203,5.0,8.0,87,0.00,,,0.00,weatherlink.com 1.10,2013-03-06 03:12:00,
2013-03-05 22:27:00,54.3,51.0,29.73,SSW,210,4.0,5.0,88,0.00,,,0.00,weatherlink.com 1.10,2013-03-06 03:27:00,
2013-03-05 22:42:00,54.3,51.0,29.72,South,186,5.0,6.0,89,0.00,,,0.00,weatherlink.com 1.10,2013-03-06 03:42:00,
2013-03-05 22:57:00,54.3,52.0,29.71,SSW,204,5.0,6.0,90,0.00,,,0.00,weatherlink.com 1.10,2013-03-06 03:57:00,
2013-03-05 23:12:00,54.8,52.0,29.69,SSW,195,6.0,8.0,91,0.00,,,0.00,weatherlink.com 1.10,2013-03-06 04:12:00,
2013-03-05 23:28:00,55.7,53.0,29.68,SSW,204,9.0,13.0,91,0.00,,,0.00,weatherlink.com 1.10,2013-03-06 04:28:00,
2013-03-05 23:43:00,57.9,54.0,29.68,SSW,203,13.0,23.0,88,0.00,,,0.00,weatherlink.com 1.10,2013-03-06 04:43:00,
2013-03-05 23:58:00,58.2,55.0,29.66,SW,220,18.0,28.0,88,0.00,,,0.00,weatherlink.com 1.10,2013-03-06 04:58:00,